Site Report
Select Start Month: Select End Month:
Big Sur Marathon Course (Apr 24, 2010 - Apr 28, 2010)
Big Sur Marathon Course (CAWCBSIM) Big Sur, CA (USA) Lat,Long: 36.37375,-121.90224 Map 55 species 1 trip (3 non-trip sightings)
The marathon runs north on Hwy 1 from Pfieffer Big Sur State Park to Carmel along the spectacular Big Sur coast. Habitats include rocky shores, beaches, coastal chapparal, meadows, oak and redwood forest around Big Sur, residential forest (pine & Monterey Cypress) in Carmel Highlands and riparian thickets with small stands of eucalyptus groves and other trees in stream canyons.
Species Sightings Trips First Date Last Date Avg/Sighting Avg/Trip Max Ct
Mallard 1   0 04/25/2010 04/25/2010 2.0 0.0 2
Brown Pelican 1   1 04/25/2010 04/25/2010 10.0 10.0 10
Brandt's Cormorant 1   1 04/25/2010 04/25/2010 15.0 15.0 15
Turkey Vulture 1   1 04/25/2010 04/25/2010 15.0 15.0 15
Red-shouldered Hawk 1   1 04/25/2010 04/25/2010 1.0 1.0 1
Red-tailed Hawk 1   1 04/25/2010 04/25/2010 1.0 1.0 1
Peregrine Falcon 1   1 04/25/2010 04/25/2010 1.0 1.0 1
Dunlin 1   1 04/25/2010 04/25/2010 30.0 30.0 30
Western Gull 1   1 04/25/2010 04/25/2010 50.0 50.0 50
Caspian Tern 1   1 04/25/2010 04/25/2010 15.0 15.0 15
Common Murre 1   1 04/25/2010 04/25/2010 20.0 20.0 20
Rock Pigeon 1   1 04/25/2010 04/25/2010 15.0 15.0 15
Band-tailed Pigeon 1   1 04/25/2010 04/25/2010 4.0 4.0 4
Eurasian Collared-Dove 1   0 04/27/2010 04/27/2010 1.0 0.0 1
Mourning Dove 1   1 04/25/2010 04/25/2010 2.0 2.0 2
Anna's Hummingbird 1   1 04/25/2010 04/25/2010 3.0 3.0 3
Acorn Woodpecker 1   1 04/25/2010 04/25/2010 5.0 5.0 5
Downy Woodpecker 1   1 04/25/2010 04/25/2010 1.0 1.0 1
Hairy Woodpecker 1   1 04/25/2010 04/25/2010 1.0 1.0 1
Olive-sided Flycatcher 1   1 04/25/2010 04/25/2010 1.0 1.0 1
Pacific-slope Flycatcher 1   1 04/25/2010 04/25/2010 15.0 15.0 15
Black Phoebe 1   1 04/25/2010 04/25/2010 1.0 1.0 1
Hutton's Vireo 1   1 04/25/2010 04/25/2010 2.0 2.0 2
Warbling Vireo 1   1 04/25/2010 04/25/2010 2.0 2.0 2
Steller's Jay 1   1 04/25/2010 04/25/2010 3.0 3.0 3
Western Scrub-Jay 1   1 04/25/2010 04/25/2010 3.0 3.0 3
American Crow 1   1 04/25/2010 04/25/2010 4.0 4.0 4
Common Raven 1   1 04/25/2010 04/25/2010 2.0 2.0 2
Purple Martin 1   0 04/26/2010 04/26/2010 10.0 0.0 10
Violet-green Swallow 1   1 04/25/2010 04/25/2010 5.0 5.0 5
Northern Rough-winged Swallow 1   1 04/25/2010 04/25/2010 1.0 1.0 1
Cliff Swallow 1   1 04/25/2010 04/25/2010 50.0 50.0 50
Barn Swallow 1   1 04/25/2010 04/25/2010 5.0 5.0 5
Chestnut-backed Chickadee 1   1 04/25/2010 04/25/2010 3.0 3.0 3
Bushtit 1   1 04/25/2010 04/25/2010 3.0 3.0 3
Pygmy Nuthatch 1   1 04/25/2010 04/25/2010 5.0 5.0 5
Brown Creeper 1   1 04/25/2010 04/25/2010 2.0 2.0 2
Wrentit 1   1 04/25/2010 04/25/2010 15.0 15.0 15
California Thrasher 1   1 04/25/2010 04/25/2010 1.0 1.0 1
European Starling 1   1 04/25/2010 04/25/2010 3.0 3.0 3
Orange-crowned Warbler 1   1 04/25/2010 04/25/2010 5.0 5.0 5
Common Yellowthroat 1   1 04/25/2010 04/25/2010 1.0 1.0 1
Yellow Warbler 1   1 04/25/2010 04/25/2010 2.0 2.0 2
Yellow-rumped Warbler 1   1 04/25/2010 04/25/2010 1.0 1.0 1
Wilson's Warbler 1   1 04/25/2010 04/25/2010 3.0 3.0 3
Spotted Towhee 1   1 04/25/2010 04/25/2010 2.0 2.0 2
Savannah Sparrow 1   1 04/25/2010 04/25/2010 5.0 5.0 5
Song Sparrow 1   1 04/25/2010 04/25/2010 10.0 10.0 10
White-crowned Sparrow 1   1 04/25/2010 04/25/2010 10.0 10.0 10
Dark-eyed Junco 1   1 04/25/2010 04/25/2010 3.0 3.0 3
Red-winged Blackbird 1   1 04/25/2010 04/25/2010 5.0 5.0 5
Brewer's Blackbird 1   1 04/25/2010 04/25/2010 5.0 5.0 5
Purple Finch 1   1 04/25/2010 04/25/2010 3.0 3.0 3
House Finch 1   1 04/25/2010 04/25/2010 8.0 8.0 8
American Goldfinch 1   1 04/25/2010 04/25/2010 1.0 1.0 1
Home